Wednesday, May 24, 2017, 4:16 AM EDT
Back to Local

KPTW, Pottstown Limerick Airport

Location: Royersford, PA, United States Lat: 40.233
Local Time: 4:16 AM EDT ( 8:16 GMT) Lon: -75.55
Time Zone: US/Eastern Elev: 291 ft

Show me the last for .
Show Decoded

2017-05-24 03:54 METAR KPTW 240754Z AUTO 04003KT 6SM -RA BR OVC100 13/12 A2973 RMK AO2 SLP065
                 P0001 T01280122 =
2017-05-24 02:54 METAR KPTW 240654Z AUTO 00000KT 7SM -RA OVC100 13/12 A2975 RMK AO2 RAB06 SLP071
                 P0001 T01330117 =
2017-05-24 01:54 METAR KPTW 240554Z AUTO 00000KT 9SM BKN100 OVC120 14/12 A2977 RMK AO2 SLP077
                 T01390117 10161 20139 55017 =
2017-05-24 00:54 METAR KPTW 240454Z AUTO 00000KT 9SM OVC100 14/12 A2977 RMK AO2 SLP077 T01390117
                 401830111 =
2017-05-23 23:54 METAR KPTW 240354Z AUTO 00000KT 10SM CLR 14/12 A2978 RMK AO2 SLP083 T01440117 =
2017-05-23 22:54 METAR KPTW 240254Z AUTO 00000KT 10SM OVC110 14/12 A2982 RMK AO2 SLP094 T01440117
                 58008 =
2017-05-23 21:54 METAR KPTW 240154Z AUTO 06003KT 10SM OVC110 15/12 A2984 RMK AO2 SLP103 T01500122
                 =
2017-05-23 20:54 METAR KPTW 240054Z AUTO 00000KT 10SM BKN100 15/13 A2984 RMK AO2 SLP103 T01500128
                 =
2017-05-23 19:54 METAR KPTW 232354Z AUTO 00000KT 10SM SCT110 16/12 A2984 RMK AO2 SLP102 T01610117
                 10183 20161 56010 =
2017-05-23 18:54 METAR KPTW 232254Z AUTO 00000KT 9SM CLR 17/11 A2985 RMK AO2 SLP105 T01720106 =
2017-05-23 17:54 METAR KPTW 232154Z AUTO 36004KT 10SM SCT030 18/12 A2986 RMK AO2 SLP107 T01780122
                 =
2017-05-23 16:54 METAR KPTW 232054Z AUTO 00000KT 9SM CLR 18/11 A2987 RMK AO2 SLP113 T01780106
                 58019 =
2017-05-23 15:54 METAR KPTW 231954Z AUTO 10004KT 9SM SCT120 18/11 A2990 RMK AO2 SLP121 T01780111
                 =
2017-05-23 14:54 METAR KPTW 231854Z AUTO 00000KT 10SM CLR 18/10 A2992 RMK AO2 SLP128 T01780100 =
2017-05-23 13:54 METAR KPTW 231754Z AUTO VRB04KT 10SM FEW120 18/10 A2993 RMK AO2 SLP132 T01780100
                 10183 20133 58018 =
2017-05-23 12:54 METAR KPTW 231654Z AUTO 00000KT 10SM CLR 18/10 A2996 RMK AO2 SLP141 T01780100 =
2017-05-23 11:54 METAR KPTW 231554Z AUTO VRB05KT 10SM CLR 18/11 A2996 RMK AO2 SLP142 T01780106 =
2017-05-23 10:54 METAR KPTW 231454Z AUTO 06005KT 10SM CLR 16/10 A2998 RMK AO2 SLP150 T01610100
                 50000 =
2017-05-23 09:54 METAR KPTW 231354Z AUTO 01005KT 10SM CLR 16/11 A2999 RMK AO2 SLP153 T01560106 =
2017-05-23 08:54 METAR KPTW 231254Z AUTO 05004KT 9SM CLR 14/11 A2998 RMK AO2 SLP151 T01440111 =
2017-05-23 07:54 METAR KPTW 231154Z AUTO 00000KT 7SM CLR 13/12 A2998 RMK AO2 SLP150 70022
                 T01330117 10133 20111 51003 =
2017-05-23 07:31 METAR KPTW 231131Z AUTO 00000KT 3SM BR CLR 13/13 A2998 RMK AO2 T01330128 =
2017-05-23 07:11 METAR KPTW 231111Z AUTO 00000KT 2 1/2SM BR CLR 12/12 A2998 RMK AO2 T01220122 =
2017-05-23 06:54 METAR KPTW 231054Z AUTO 00000KT 4SM BR CLR 12/12 A2998 RMK AO2 SLP151 T01220122
                 =
2017-05-23 06:25 METAR KPTW 231025Z AUTO 00000KT 3SM BR FEW013 12/12 A2998 RMK AO2 T01220122 =
2017-05-23 06:21 METAR KPTW 231021Z AUTO 10003KT 1 1/4SM BR SCT013 12/12 A2998 RMK AO2 T01220122
                 =
2017-05-23 06:12 METAR KPTW 231012Z AUTO 00000KT 3/4SM BR VV013 12/12 A2997 RMK AO2 T01170117 =
2017-05-23 05:54 METAR KPTW 230954Z AUTO 00000KT 1/2SM FG CLR 11/11 A2997 RMK AO2 SLP147
                 T01110111 =
2017-05-23 05:52 METAR KPTW 230952Z AUTO 00000KT 1/2SM FG CLR 11/11 A2997 RMK AO2 =
2017-05-23 05:05 METAR KPTW 230905Z AUTO 00000KT 1 1/4SM BR SCT004 13/12 A2996 RMK AO2 T01280122
                 =
2017-05-23 04:54 METAR KPTW 230854Z AUTO 00000KT 1/2SM FG VV004 12/12 A2996 RMK AO2 SLP144
                 T01170117 55001 =
2017-05-23 04:38 METAR KPTW 230838Z AUTO 00000KT 3/4SM BR VV009 12/12 A2996 RMK AO2 T01220122 =
2017-05-23 04:30 METAR KPTW 230830Z AUTO 00000KT 1 1/4SM BR SCT011 13/12 A2996 RMK AO2 T01280122
                 =

Support USWX by starting your Amazon purchase here.